^^
Paulen-Weather Station Historical Data
Daily Summary for May 12, 2022 Units:  Metric    English   Both
Daily Weekly Monthly Yearly Custom
  High: Low: Average:
Temperature: 12 °C 8 °C 10 °C
Dew Point: 9 °C 5 °C 7.1 °C
Humidity: 96% 70% 83%
Wind Speed: 35km/h 5km/h 16.2km/h
Wind Gust: 26km/h - -
Wind- - NW
Pressure: 1009.18 hPa 999.59 hPa -
Precipitation: 0.79 mm    
Historical Graphs
 
 
Tabular Data for May 12, 2022
Time Temperature Dew Point Pressure Wind Wind Speed Wind Gust Humidity Rainfall Rate (Hourly) solar
00:04 9 °C 8 °C 1000.2 hPa NW 9 km/h 6 km/h 95% 0 mm 0 W/m2
00:09 9 °C 8 °C 1000.14 hPa NW 11 km/h 7 km/h 95% 0 mm 0 W/m2
00:14 9 °C 8 °C 1000.1 hPa NW 9 km/h 7 km/h 95% 0 mm 0 W/m2
00:19 9 °C 8 °C 1000.03 hPa NNW 10 km/h 7 km/h 95% 0 mm 0 W/m2
00:24 9 °C 8 °C 999.97 hPa NW 5 km/h 5 km/h 95% 0 mm 0 W/m2
00:29 9 °C 8 °C 999.87 hPa NNW 10 km/h 8 km/h 95% 0 mm 0 W/m2
00:34 9 °C 8 °C 999.73 hPa NW 11 km/h 8 km/h 95% 0 mm 0 W/m2
00:39 9 °C 8 °C 999.73 hPa NNW 13 km/h 10 km/h 95% 0 mm 0 W/m2
00:44 9 °C 8 °C 999.76 hPa N 14 km/h 11 km/h 96% 0 mm 0 W/m2
00:49 9 °C 8 °C 999.76 hPa NNW 10 km/h 7 km/h 96% 0 mm 0 W/m2
00:54 9 °C 8 °C 999.76 hPa NNW 8 km/h 6 km/h 96% 0 mm 0 W/m2
00:59 9 °C 8 °C 999.7 hPa NNW 8 km/h 7 km/h 96% 0 mm 0 W/m2
01:04 9 °C 8 °C 999.7 hPa NW 8 km/h 7 km/h 96% 0 mm 0 W/m2
01:09 9 °C 8 °C 999.7 hPa WNW 5 km/h 3 km/h 96% 0 mm 0 W/m2
01:14 9 °C 8 °C 999.7 hPa WNW 5 km/h 5 km/h 96% 0 mm 0 W/m2
01:19 9 °C 8 °C 999.66 hPa NW 5 km/h 4 km/h 96% 0 mm 0 W/m2
01:24 9 °C 8 °C 999.66 hPa NW 7 km/h 7 km/h 96% 0 mm 0 W/m2
01:29 9 °C 8 °C 999.59 hPa NW 9 km/h 6 km/h 95% 0 mm 0 W/m2
01:34 9 °C 8 °C 999.59 hPa NW 8 km/h 6 km/h 95% 0 mm 0 W/m2
01:39 9 °C 8 °C 999.66 hPa NW 9 km/h 6 km/h 95% 0 mm 0 W/m2
01:44 9 °C 8 °C 999.7 hPa NNW 7 km/h 4 km/h 95% 0 mm 0 W/m2
01:49 9 °C 8 °C 999.66 hPa NW 14 km/h 8 km/h 94% 0 mm 0 W/m2
01:54 9 °C 8 °C 999.7 hPa WNW 10 km/h 6 km/h 94% 0 mm 0 W/m2
01:59 9 °C 8 °C 999.66 hPa WNW 7 km/h 5 km/h 93% 0 mm 0 W/m2
02:04 9 °C 8 °C 999.66 hPa NW 7 km/h 4 km/h 93% 0 mm 0 W/m2
02:09 9 °C 8 °C 999.66 hPa NW 8 km/h 6 km/h 92% 0 mm 0 W/m2
02:14 9 °C 7 °C 999.76 hPa NW 14 km/h 12 km/h 92% 0 mm 0 W/m2
02:19 9 °C 7 °C 999.8 hPa NNW 14 km/h 10 km/h 91% 0 mm 0 W/m2
02:24 9 °C 7 °C 999.73 hPa NW 14 km/h 10 km/h 90% 0 mm 0 W/m2
02:29 9 °C 7 °C 999.76 hPa NW 14 km/h 11 km/h 89% 0 mm 0 W/m2
02:34 9 °C 7 °C 999.83 hPa NW 10 km/h 6 km/h 89% 0 mm 0 W/m2
02:39 9 °C 7 °C 999.87 hPa WNW 9 km/h 6 km/h 88% 0 mm 0 W/m2
02:44 9 °C 7 °C 999.9 hPa WNW 9 km/h 6 km/h 88% 0 mm 0 W/m2
02:49 9 °C 7 °C 999.97 hPa WNW 11 km/h 8 km/h 88% 0 mm 0 W/m2
02:54 9 °C 7 °C 999.97 hPa NW 10 km/h 6 km/h 88% 0 mm 0 W/m2
02:59 9 °C 7 °C 1000.07 hPa NW 11 km/h 11 km/h 88% 0 mm 0 W/m2
03:04 9 °C 7 °C 1000.03 hPa NW 14 km/h 8 km/h 88% 0 mm 0 W/m2
03:09 9 °C 7 °C 1000.07 hPa WNW 13 km/h 11 km/h 88% 0 mm 0 W/m2
03:14 9 °C 7 °C 1000.07 hPa NW 14 km/h 8 km/h 88% 0 mm 0 W/m2
03:19 9 °C 7 °C 1000.07 hPa NW 14 km/h 11 km/h 88% 0 mm 0 W/m2
03:24 9 °C 7 °C 1000.14 hPa NNW 15 km/h 8 km/h 88% 0 mm 0 W/m2
03:29 9 °C 7 °C 1000.17 hPa NW 11 km/h 6 km/h 88% 0 mm 0 W/m2
03:34 9 °C 7 °C 1000.2 hPa NW 17 km/h 9 km/h 88% 0 mm 0 W/m2
03:39 9 °C 7 °C 1000.17 hPa WNW 14 km/h 10 km/h 88% 0 mm 0 W/m2
03:44 9 °C 7 °C 1000.27 hPa NW 16 km/h 10 km/h 87% 0 mm 0 W/m2
03:49 8 °C 6 °C 1000.37 hPa NW 13 km/h 9 km/h 87% 0 mm 0 W/m2
03:54 9 °C 6 °C 1000.41 hPa WNW 8 km/h 7 km/h 87% 0 mm 0 W/m2
03:59 8 °C 6 °C 1000.44 hPa WNW 6 km/h 6 km/h 87% 0 mm 0 W/m2
04:04 9 °C 6 °C 1000.47 hPa NNW 7 km/h 5 km/h 87% 0 mm 0 W/m2
04:09 9 °C 6 °C 1000.51 hPa NW 11 km/h 5 km/h 87% 0 mm 0 W/m2
04:14 9 °C 6 °C 1000.54 hPa NNW 9 km/h 8 km/h 87% 0 mm 0 W/m2
04:19 9 °C 6 °C 1000.58 hPa NW 9 km/h 6 km/h 86% 0 mm 0 W/m2
04:24 8 °C 6 °C 1000.68 hPa NW 11 km/h 8 km/h 86% 0 mm 0 W/m2
04:29 9 °C 6 °C 1000.71 hPa NW 7 km/h 5 km/h 86% 0 mm 0 W/m2
04:34 9 °C 6 °C 1000.75 hPa NNW 10 km/h 11 km/h 85% 0 mm 0 W/m2
04:39 9 °C 6 °C 1000.71 hPa NW 14 km/h 10 km/h 85% 0 mm 0 W/m2
04:44 9 °C 6 °C 1000.75 hPa NW 16 km/h 12 km/h 84% 0 mm 0 W/m2
04:49 9 °C 6 °C 1000.75 hPa NW 21 km/h 16 km/h 84% 0 mm 0 W/m2
04:54 9 °C 6 °C 1000.91 hPa WNW 17 km/h 17 km/h 84% 0 mm 0 W/m2
04:59 9 °C 6 °C 1000.98 hPa NW 17 km/h 12 km/h 84% 0 mm 0 W/m2
05:04 9 °C 6 °C 1000.95 hPa WNW 15 km/h 10 km/h 84% 0 mm 0 W/m2
05:09 9 °C 6 °C 1001.05 hPa NW 21 km/h 12 km/h 84% 0 mm 5 W/m2
05:14 9 °C 6 °C 1001.08 hPa WNW 16 km/h 10 km/h 84% 0 mm 7 W/m2
05:19 9 °C 6 °C 1001.15 hPa NW 11 km/h 9 km/h 84% 0 mm 12 W/m2
05:24 9 °C 6 °C 1001.29 hPa WNW 10 km/h 8 km/h 84% 0 mm 16 W/m2
05:29 9 °C 6 °C 1001.32 hPa NW 22 km/h 14 km/h 83% 0 mm 18 W/m2
05:34 9 °C 6 °C 1001.32 hPa NW 15 km/h 11 km/h 83% 0 mm 23 W/m2
05:39 9 °C 6 °C 1001.39 hPa WNW 12 km/h 9 km/h 83% 0 mm 35 W/m2
05:44 9 °C 6 °C 1001.49 hPa WNW 13 km/h 11 km/h 82% 0 mm 35 W/m2
05:49 9 °C 6 °C 1001.59 hPa NW 17 km/h 11 km/h 82% 0 mm 49 W/m2
05:54 9 °C 6 °C 1001.56 hPa NW 11 km/h 9 km/h 82% 0 mm 49 W/m2
05:59 9 °C 6 °C 1001.56 hPa WNW 15 km/h 9 km/h 82% 0 mm 67 W/m2
06:04 9 °C 6 °C 1001.66 hPa WNW 21 km/h 20 km/h 81% 0 mm 76 W/m2
06:09 9 °C 6 °C 1001.69 hPa WNW 17 km/h 15 km/h 80% 0 mm 81 W/m2
06:14 9 °C 6 °C 1001.83 hPa NW 21 km/h 14 km/h 79% 0 mm 91 W/m2
06:19 9 °C 6 °C 1001.93 hPa WNW 17 km/h 12 km/h 79% 0 mm 102 W/m2
06:24 9 °C 5 °C 1002 hPa WNW 16 km/h 11 km/h 78% 0 mm 109 W/m2
06:29 9 °C 5 °C 1002 hPa NW 16 km/h 13 km/h 78% 0 mm 116 W/m2
06:34 9 °C 5 °C 1002.03 hPa NW 19 km/h 16 km/h 77% 0 mm 125 W/m2
06:39 9 °C 5 °C 1002.07 hPa WNW 21 km/h 16 km/h 77% 0 mm 134 W/m2
06:44 9 °C 5 °C 1002.17 hPa NW 17 km/h 11 km/h 77% 0 mm 144 W/m2
06:49 9 °C 5 °C 1002.3 hPa NW 16 km/h 10 km/h 76% 0 mm 149 W/m2
06:54 9 °C 5 °C 1002.37 hPa NW 16 km/h 11 km/h 76% 0 mm 162 W/m2
06:59 9 °C 5 °C 1002.44 hPa WNW 17 km/h 12 km/h 76% 0 mm 167 W/m2
07:04 9 °C 5 °C 1002.51 hPa NW 15 km/h 12 km/h 75% 0 mm 199 W/m2
07:09 9 °C 5 °C 1002.64 hPa N 19 km/h 10 km/h 75% 0 mm 199 W/m2
07:14 9 °C 5 °C 1002.74 hPa NW 15 km/h 12 km/h 76% 0 mm 214 W/m2
07:19 10 °C 6 °C 1002.91 hPa NW 13 km/h 9 km/h 76% 0 mm 221 W/m2
07:24 10 °C 6 °C 1002.98 hPa WNW 15 km/h 9 km/h 76% 0 mm 230 W/m2
07:29 10 °C 6 °C 1003.05 hPa NW 16 km/h 11 km/h 76% 0 mm 243 W/m2
07:34 10 °C 6 °C 1003.15 hPa NW 15 km/h 10 km/h 75% 0 mm 255 W/m2
07:39 10 °C 6 °C 1003.29 hPa NW 13 km/h 8 km/h 75% 0 mm 264 W/m2
07:44 10 °C 6 °C 1003.32 hPa NW 22 km/h 15 km/h 74% 0 mm 274 W/m2
07:49 10 °C 6 °C 1003.42 hPa NW 18 km/h 11 km/h 74% 0 mm 288 W/m2
07:54 11 °C 6 °C 1003.56 hPa WNW 18 km/h 12 km/h 74% 0 mm 299 W/m2
07:59 11 °C 6 °C 1003.62 hPa WNW 14 km/h 13 km/h 74% 0 mm 330 W/m2
08:04 11 °C 6 °C 1003.69 hPa NW 19 km/h 14 km/h 74% 0 mm 343 W/m2
08:09 11 °C 6 °C 1003.76 hPa NW 18 km/h 14 km/h 74% 0 mm 348 W/m2
08:14 11 °C 6 °C 1003.86 hPa NW 26 km/h 16 km/h 73% 0 mm 346 W/m2
08:19 11 °C 6 °C 1004 hPa NW 15 km/h 13 km/h 73% 0 mm 376 W/m2
08:24 11 °C 6 °C 1004.1 hPa WNW 17 km/h 11 km/h 73% 0 mm 383 W/m2
08:29 11 °C 7 °C 1004.23 hPa NW 16 km/h 11 km/h 73% 0 mm 401 W/m2
08:34 11 °C 7 °C 1004.2 hPa NW 13 km/h 8 km/h 73% 0 mm 415 W/m2
08:39 11 °C 7 °C 1004.3 hPa NW 17 km/h 14 km/h 73% 0 mm 471 W/m2
08:44 11 °C 7 °C 1004.37 hPa NW 24 km/h 17 km/h 73% 0 mm 471 W/m2
08:49 11 °C 7 °C 1004.4 hPa N 19 km/h 13 km/h 74% 0 mm 197 W/m2
08:54 11 °C 7 °C 1004.57 hPa NW 16 km/h 10 km/h 76% 0 mm 436 W/m2
08:59 11 °C 7 °C 1004.67 hPa WNW 20 km/h 13 km/h 77% 0 mm 448 W/m2
09:04 11 °C 7 °C 1004.71 hPa NW 23 km/h 14 km/h 77% 0 mm 457 W/m2
09:09 11 °C 7 °C 1004.71 hPa NW 18 km/h 14 km/h 76% 0 mm 469 W/m2
09:14 12 °C 7 °C 1004.88 hPa WNW 23 km/h 14 km/h 75% 0 mm 480 W/m2
09:19 12 °C 7 °C 1004.94 hPa NW 21 km/h 14 km/h 74% 0 mm 487 W/m2
09:24 12 °C 7 °C 1005.08 hPa NW 15 km/h 10 km/h 73% 0 mm 497 W/m2
09:29 12 °C 7 °C 1005.15 hPa NW 14 km/h 11 km/h 73% 0 mm 348 W/m2
09:34 12 °C 7 °C 1005.28 hPa NW 21 km/h 15 km/h 71% 0 mm 269 W/m2
09:39 11 °C 7 °C 1005.32 hPa NNW 26 km/h 20 km/h 72% 0 mm 269 W/m2
09:44 11 °C 7 °C 1005.32 hPa NW 20 km/h 16 km/h 72% 0 mm 227 W/m2
09:49 12 °C 7 °C 1005.42 hPa NW 17 km/h 9 km/h 72% 0 mm 613 W/m2
09:54 12 °C 7 °C 1005.52 hPa NNW 17 km/h 13 km/h 71% 0 mm 701 W/m2
09:59 12 °C 7 °C 1005.52 hPa NW 20 km/h 11 km/h 70% 0 mm 701 W/m2
10:04 12 °C 7 °C 1005.55 hPa NW 19 km/h 13 km/h 70% 0 mm 308 W/m2
10:09 12 °C 7 °C 1005.62 hPa NW 19 km/h 14 km/h 70% 0 mm 278 W/m2
10:14 12 °C 7 °C 1005.69 hPa NW 16 km/h 13 km/h 72% 0 mm 640 W/m2
10:19 12 °C 7 °C 1005.72 hPa NNW 24 km/h 16 km/h 74% 0 mm 640 W/m2
10:24 12 °C 7 °C 1005.76 hPa NW 17 km/h 13 km/h 75% 0 mm 742 W/m2
10:29 12 °C 7 °C 1005.86 hPa NW 19 km/h 15 km/h 74% 0 mm 779 W/m2
10:34 12 °C 7 °C 1005.93 hPa NW 18 km/h 13 km/h 72% 0 mm 779 W/m2
10:39 12 °C 8 °C 1005.96 hPa NW 18 km/h 15 km/h 73% 0 mm 350 W/m2
10:44 12 °C 8 °C 1006.1 hPa WNW 15 km/h 9 km/h 75% 0 mm 197 W/m2
10:49 12 °C 7 °C 1006.16 hPa NW 15 km/h 11 km/h 75% 0 mm 134 W/m2
10:54 11 °C 7 °C 1006.43 hPa NW 20 km/h 16 km/h 76% 0 mm 141 W/m2
10:59 11 °C 7 °C 1006.5 hPa NNW 10 km/h 7 km/h 76% 0 mm 272 W/m2
11:04 11 °C 7 °C 1006.6 hPa NW 15 km/h 13 km/h 77% 0 mm 253 W/m2
11:09 11 °C 7 °C 1006.77 hPa NNW 16 km/h 15 km/h 78% 0 mm 135 W/m2
11:14 10 °C 7 °C 1006.81 hPa NW 15 km/h 12 km/h 79% 0 mm 120 W/m2
11:19 10 °C 7 °C 1006.84 hPa NW 11 km/h 9 km/h 79% 0 mm 171 W/m2
11:24 10 °C 7 °C 1006.87 hPa NW 11 km/h 10 km/h 80% 0 mm 171 W/m2
11:29 10 °C 7 °C 1006.87 hPa NW 9 km/h 7 km/h 79% 0 mm 232 W/m2
11:34 11 °C 7 °C 1006.81 hPa NW 10 km/h 7 km/h 79% 0 mm 250 W/m2
11:39 11 °C 7 °C 1006.87 hPa NW 18 km/h 11 km/h 78% 0 mm 237 W/m2
11:44 11 °C 7 °C 1006.87 hPa NNW 21 km/h 18 km/h 77% 0 mm 301 W/m2
11:49 11 °C 7 °C 1006.94 hPa NNW 20 km/h 14 km/h 76% 0 mm 316 W/m2
11:54 11 °C 7 °C 1006.94 hPa NNW 23 km/h 17 km/h 76% 0 mm 313 W/m2
11:59 11 °C 8 °C 1007.01 hPa NNW 23 km/h 18 km/h 78% 0 mm 322 W/m2
12:04 11 °C 8 °C 1007.01 hPa N 24 km/h 17 km/h 81% 0 mm 330 W/m2
12:09 11 °C 8 °C 1007.15 hPa NNW 23 km/h 17 km/h 84% 0 mm 290 W/m2
12:14 10 °C 8 °C 1007.25 hPa NNW 26 km/h 17 km/h 85% 0 mm 427 W/m2
12:19 10 °C 8 °C 1007.28 hPa NW 21 km/h 14 km/h 86% 0 mm 348 W/m2
12:24 11 °C 9 °C 1007.25 hPa N 20 km/h 9 km/h 87% 0 mm 376 W/m2
12:29 11 °C 8 °C 1007.32 hPa NNW 19 km/h 11 km/h 85% 0 mm 429 W/m2
12:34 11 °C 8 °C 1007.25 hPa NNW 19 km/h 14 km/h 84% 0 mm 867 W/m2
12:39 11 °C 8 °C 1007.25 hPa NNW 26 km/h 18 km/h 81% 0 mm 956 W/m2
12:44 11 °C 8 °C 1007.32 hPa NNW 24 km/h 16 km/h 80% 0 mm 373 W/m2
12:49 11 °C 8 °C 1007.38 hPa N 23 km/h 22 km/h 81% 0.2 mm 250 W/m2
12:54 10 °C 8 °C 1007.32 hPa NNW 20 km/h 14 km/h 85% 0.2 mm 250 W/m2
12:59 10 °C 8 °C 1007.42 hPa NNW 18 km/h 16 km/h 86% 0.2 mm 200 W/m2
13:04 10 °C 8 °C 1007.45 hPa NNW 17 km/h 11 km/h 86% 0.2 mm 253 W/m2
13:09 10 °C 8 °C 1007.52 hPa NNW 12 km/h 11 km/h 87% 0.2 mm 269 W/m2
13:14 10 °C 8 °C 1007.55 hPa NW 14 km/h 7 km/h 87% 0.2 mm 221 W/m2
13:19 10 °C 8 °C 1007.65 hPa NNW 18 km/h 13 km/h 86% 0.41 mm 104 W/m2
13:24 10 °C 7 °C 1007.65 hPa NNW 22 km/h 17 km/h 85% 0.61 mm 151 W/m2
13:29 9 °C 7 °C 1007.69 hPa NNW 15 km/h 9 km/h 86% 0.61 mm 172 W/m2
13:34 9 °C 7 °C 1007.72 hPa NNW 10 km/h 9 km/h 87% 0.61 mm 299 W/m2
13:39 9 °C 8 °C 1007.76 hPa N 14 km/h 10 km/h 88% 0.61 mm 299 W/m2
13:44 9 °C 8 °C 1007.76 hPa NNW 21 km/h 21 km/h 89% 0.61 mm 188 W/m2
13:49 9 °C 8 °C 1007.76 hPa N 24 km/h 18 km/h 89% 0.61 mm 232 W/m2
13:54 9 °C 8 °C 1007.76 hPa N 18 km/h 15 km/h 90% 0.41 mm 232 W/m2
13:59 9 °C 8 °C 1007.76 hPa N 20 km/h 15 km/h 91% 0.61 mm 541 W/m2
14:04 9 °C 8 °C 1007.76 hPa N 22 km/h 19 km/h 91% 0.61 mm 230 W/m2
14:09 9 °C 8 °C 1007.72 hPa N 24 km/h 19 km/h 91% 0.61 mm 675 W/m2
14:14 10 °C 9 °C 1007.59 hPa N 29 km/h 19 km/h 91% 0.61 mm 765 W/m2
14:19 10 °C 9 °C 1007.59 hPa NNW 18 km/h 14 km/h 91% 0.61 mm 800 W/m2
14:24 10 °C 9 °C 1007.59 hPa N 26 km/h 20 km/h 89% 0.41 mm 798 W/m2
14:29 11 °C 9 °C 1007.59 hPa N 22 km/h 17 km/h 89% 0.2 mm 756 W/m2
14:34 11 °C 9 °C 1007.55 hPa N 24 km/h 18 km/h 88% 0.2 mm 735 W/m2
14:39 11 °C 9 °C 1007.55 hPa N 21 km/h 13 km/h 87% 0.2 mm 745 W/m2
14:44 11 °C 9 °C 1007.52 hPa N 21 km/h 17 km/h 86% 0.2 mm 737 W/m2
14:49 11 °C 9 °C 1007.52 hPa N 20 km/h 15 km/h 85% 0.2 mm 770 W/m2
14:54 11 °C 9 °C 1007.55 hPa N 22 km/h 17 km/h 85% 0.2 mm 773 W/m2
14:59 11 °C 9 °C 1007.52 hPa N 19 km/h 18 km/h 83% 0.2 mm 784 W/m2
15:04 11 °C 9 °C 1007.59 hPa N 18 km/h 12 km/h 83% 0 mm 784 W/m2
15:09 11 °C 9 °C 1007.59 hPa N 17 km/h 13 km/h 83% 0 mm 874 W/m2
15:14 11 °C 8 °C 1007.62 hPa NNW 24 km/h 17 km/h 82% 0 mm 800 W/m2
15:19 11 °C 8 °C 1007.65 hPa N 21 km/h 14 km/h 83% 0 mm 420 W/m2
15:24 11 °C 8 °C 1007.65 hPa NNW 20 km/h 19 km/h 83% 0 mm 274 W/m2
15:29 11 °C 8 °C 1007.55 hPa N 27 km/h 19 km/h 82% 0 mm 773 W/m2
15:34 11 °C 8 °C 1007.59 hPa N 24 km/h 21 km/h 82% 0 mm 891 W/m2
15:39 11 °C 8 °C 1007.59 hPa N 26 km/h 17 km/h 81% 0 mm 826 W/m2
15:44 12 °C 8 °C 1007.52 hPa N 21 km/h 16 km/h 80% 0 mm 754 W/m2
15:49 12 °C 8 °C 1007.55 hPa N 23 km/h 17 km/h 78% 0 mm 802 W/m2
15:54 12 °C 8 °C 1007.72 hPa N 23 km/h 15 km/h 78% 0 mm 802 W/m2
15:59 12 °C 8 °C 1007.79 hPa NNW 21 km/h 16 km/h 77% 0 mm 763 W/m2
16:04 12 °C 8 °C 1007.76 hPa NNW 17 km/h 13 km/h 75% 0 mm 649 W/m2
16:09 12 °C 8 °C 1007.76 hPa N 26 km/h 21 km/h 75% 0 mm 636 W/m2
16:14 12 °C 8 °C 1007.76 hPa N 22 km/h 17 km/h 78% 0 mm 657 W/m2
16:19 12 °C 8 °C 1007.82 hPa N 22 km/h 18 km/h 79% 0 mm 729 W/m2
16:24 12 °C 8 °C 1007.86 hPa N 28 km/h 23 km/h 79% 0 mm 223 W/m2
16:29 11 °C 8 °C 1007.86 hPa N 30 km/h 23 km/h 81% 0 mm 649 W/m2
16:34 11 °C 8 °C 1007.89 hPa N 25 km/h 20 km/h 81% 0 mm 649 W/m2
16:39 11 °C 8 °C 1007.86 hPa N 25 km/h 20 km/h 79% 0 mm 606 W/m2
16:44 12 °C 8 °C 1007.86 hPa N 27 km/h 22 km/h 78% 0 mm 606 W/m2
16:49 11 °C 8 °C 1007.89 hPa N 27 km/h 25 km/h 78% 0 mm 629 W/m2
16:54 11 °C 8 °C 1007.92 hPa N 35 km/h 26 km/h 79% 0 mm 629 W/m2
16:59 11 °C 8 °C 1007.89 hPa N 25 km/h 21 km/h 78% 0 mm 594 W/m2
17:04 12 °C 8 °C 1007.92 hPa N 25 km/h 18 km/h 77% 0 mm 594 W/m2
17:09 12 °C 8 °C 1008.03 hPa NNW 22 km/h 18 km/h 77% 0 mm 601 W/m2
17:14 12 °C 8 °C 1008.03 hPa N 25 km/h 18 km/h 77% 0 mm 587 W/m2
17:19 11 °C 8 °C 1007.99 hPa N 22 km/h 17 km/h 78% 0 mm 519 W/m2
17:24 11 °C 8 °C 1007.99 hPa N 23 km/h 14 km/h 79% 0 mm 522 W/m2
17:29 11 °C 8 °C 1008.03 hPa N 24 km/h 16 km/h 78% 0 mm 538 W/m2
17:34 11 °C 8 °C 1007.96 hPa N 25 km/h 19 km/h 78% 0 mm 476 W/m2
17:39 11 °C 8 °C 1007.96 hPa N 24 km/h 16 km/h 79% 0 mm 471 W/m2
17:44 11 °C 8 °C 1007.99 hPa N 29 km/h 22 km/h 80% 0 mm 492 W/m2
17:49 11 °C 8 °C 1007.99 hPa N 27 km/h 22 km/h 81% 0 mm 454 W/m2
17:54 11 °C 8 °C 1008.06 hPa N 25 km/h 15 km/h 81% 0 mm 473 W/m2
17:59 11 °C 7 °C 1008.09 hPa N 24 km/h 17 km/h 81% 0 mm 510 W/m2
18:04 11 °C 8 °C 1008.09 hPa N 21 km/h 15 km/h 80% 0 mm 432 W/m2
18:09 11 °C 7 °C 1008.16 hPa N 24 km/h 15 km/h 80% 0 mm 434 W/m2
18:14 11 °C 7 °C 1008.2 hPa N 19 km/h 15 km/h 79% 0 mm 420 W/m2
18:19 11 °C 8 °C 1008.13 hPa NNW 17 km/h 11 km/h 78% 0 mm 404 W/m2
18:24 11 °C 8 °C 1008.2 hPa NNW 18 km/h 10 km/h 76% 0 mm 374 W/m2
18:29 12 °C 7 °C 1008.16 hPa NNW 18 km/h 12 km/h 75% 0 mm 373 W/m2
18:34 12 °C 7 °C 1008.23 hPa ENE 19 km/h 14 km/h 74% 0 mm 343 W/m2
18:39 12 °C 7 °C 1008.3 hPa NW 18 km/h 14 km/h 74% 0 mm 329 W/m2
18:44 12 °C 7 °C 1008.33 hPa NNW 16 km/h 13 km/h 74% 0 mm 325 W/m2
18:49 12 °C 7 °C 1008.36 hPa NNW 17 km/h 12 km/h 74% 0 mm 373 W/m2
18:54 11 °C 7 °C 1008.36 hPa NNW 22 km/h 14 km/h 74% 0 mm 355 W/m2
18:59 11 °C 7 °C 1008.3 hPa NNE 13 km/h 10 km/h 75% 0 mm 338 W/m2
19:04 11 °C 7 °C 1008.33 hPa NNW 18 km/h 13 km/h 74% 0 mm 271 W/m2
19:09 11 °C 7 °C 1008.33 hPa NNW 21 km/h 13 km/h 74% 0 mm 253 W/m2
19:14 11 °C 7 °C 1008.3 hPa NW 16 km/h 9 km/h 75% 0 mm 246 W/m2
19:19 11 °C 7 °C 1008.3 hPa NNW 17 km/h 14 km/h 75% 0 mm 246 W/m2
19:24 11 °C 7 °C 1008.3 hPa NW 13 km/h 10 km/h 76% 0 mm 121 W/m2
19:29 11 °C 7 °C 1008.23 hPa NNW 16 km/h 11 km/h 77% 0 mm 144 W/m2
19:34 11 °C 7 °C 1008.26 hPa NNW 18 km/h 12 km/h 76% 0 mm 144 W/m2
19:39 10 °C 6 °C 1008.26 hPa NNW 15 km/h 10 km/h 76% 0 mm 241 W/m2
19:44 11 °C 7 °C 1008.3 hPa NW 16 km/h 9 km/h 76% 0 mm 250 W/m2
19:49 11 °C 7 °C 1008.36 hPa NNW 17 km/h 10 km/h 75% 0 mm 193 W/m2
19:54 11 °C 7 °C 1008.33 hPa N 16 km/h 9 km/h 75% 0 mm 162 W/m2
19:59 11 °C 7 °C 1008.3 hPa NNW 19 km/h 12 km/h 76% 0 mm 134 W/m2
20:04 10 °C 7 °C 1008.3 hPa NNW 13 km/h 11 km/h 77% 0 mm 113 W/m2
20:09 10 °C 7 °C 1008.33 hPa NNW 12 km/h 9 km/h 79% 0 mm 120 W/m2
20:14 10 °C 7 °C 1008.33 hPa NNW 13 km/h 8 km/h 80% 0 mm 120 W/m2
20:19 10 °C 7 °C 1008.36 hPa WNW 13 km/h 8 km/h 80% 0 mm 102 W/m2
20:24 10 °C 7 °C 1008.4 hPa NNW 14 km/h 9 km/h 81% 0 mm 79 W/m2
20:29 10 °C 7 °C 1008.5 hPa NNW 15 km/h 12 km/h 82% 0 mm 70 W/m2
20:34 10 °C 7 °C 1008.5 hPa NNW 18 km/h 9 km/h 83% 0 mm 44 W/m2
20:39 9 °C 7 °C 1008.53 hPa NNW 14 km/h 10 km/h 84% 0 mm 37 W/m2
20:44 9 °C 7 °C 1008.57 hPa NNW 15 km/h 11 km/h 84% 0 mm 33 W/m2
20:49 9 °C 7 °C 1008.6 hPa NNW 14 km/h 11 km/h 84% 0 mm 33 W/m2
20:54 9 °C 7 °C 1008.64 hPa NNW 14 km/h 10 km/h 84% 0 mm 37 W/m2
20:59 9 °C 7 °C 1008.6 hPa NW 11 km/h 7 km/h 84% 0 mm 37 W/m2
21:04 9 °C 7 °C 1008.67 hPa NW 17 km/h 11 km/h 84% 0 mm 28 W/m2
21:09 9 °C 7 °C 1008.7 hPa WNW 13 km/h 9 km/h 84% 0 mm 25 W/m2
21:14 9 °C 7 °C 1008.74 hPa NW 15 km/h 11 km/h 84% 0 mm 21 W/m2
21:19 9 °C 7 °C 1008.81 hPa WNW 14 km/h 11 km/h 84% 0 mm 19 W/m2
21:24 9 °C 7 °C 1008.87 hPa NW 16 km/h 12 km/h 85% 0 mm 16 W/m2
21:29 9 °C 7 °C 1008.87 hPa NW 11 km/h 11 km/h 85% 0 mm 14 W/m2
21:34 9 °C 7 °C 1008.84 hPa WNW 14 km/h 10 km/h 85% 0 mm 11 W/m2
21:39 9 °C 7 °C 1008.84 hPa NNW 14 km/h 12 km/h 85% 0 mm 9 W/m2
21:44 9 °C 7 °C 1008.81 hPa NW 11 km/h 8 km/h 85% 0 mm 5 W/m2
21:49 9 °C 7 °C 1008.84 hPa WNW 12 km/h 6 km/h 85% 0 mm 0 W/m2
21:54 9 °C 7 °C 1008.87 hPa NW 8 km/h 5 km/h 85% 0 mm 0 W/m2
21:59 9 °C 7 °C 1008.91 hPa NW 9 km/h 6 km/h 85% 0 mm 0 W/m2
22:04 9 °C 7 °C 1009.04 hPa NNW 9 km/h 9 km/h 85% 0 mm 0 W/m2
22:09 9 °C 7 °C 1009.08 hPa WNW 14 km/h 11 km/h 85% 0 mm 0 W/m2
22:14 9 °C 7 °C 1009.08 hPa NNW 10 km/h 7 km/h 86% 0 mm 0 W/m2
22:19 9 °C 7 °C 1009.04 hPa NW 11 km/h 7 km/h 87% 0 mm 0 W/m2
22:24 9 °C 7 °C 1009.04 hPa NW 11 km/h 6 km/h 88% 0 mm 0 W/m2
22:29 8 °C 7 °C 1009.04 hPa WNW 9 km/h 7 km/h 88% 0 mm 0 W/m2
22:34 8 °C 7 °C 1009.01 hPa WNW 9 km/h 6 km/h 88% 0 mm 0 W/m2
22:39 8 °C 7 °C 1009.01 hPa NNW 10 km/h 6 km/h 88% 0 mm 0 W/m2
22:44 8 °C 6 °C 1009.11 hPa NW 10 km/h 6 km/h 88% 0 mm 0 W/m2
22:49 8 °C 6 °C 1009.11 hPa NW 8 km/h 6 km/h 88% 0 mm 0 W/m2
22:54 8 °C 6 °C 1009.11 hPa NW 10 km/h 6 km/h 88% 0 mm 0 W/m2
22:59 8 °C 6 °C 1009.08 hPa WNW 11 km/h 6 km/h 88% 0 mm 0 W/m2
23:04 8 °C 7 °C 1009.04 hPa NW 8 km/h 6 km/h 89% 0 mm 0 W/m2
23:09 8 °C 7 °C 1009.11 hPa WNW 13 km/h 7 km/h 89% 0 mm 0 W/m2
23:14 8 °C 6 °C 1009.14 hPa WNW 12 km/h 7 km/h 89% 0 mm 0 W/m2
23:19 8 °C 6 °C 1009.11 hPa WNW 10 km/h 7 km/h 89% 0 mm 0 W/m2
23:24 8 °C 6 °C 1009.14 hPa NW 9 km/h 6 km/h 89% 0 mm 0 W/m2
23:29 8 °C 6 °C 1009.18 hPa WNW 6 km/h 3 km/h 89% 0 mm 0 W/m2
23:34 8 °C 6 °C 1009.14 hPa WNW 6 km/h 4 km/h 89% 0 mm 0 W/m2
23:39 8 °C 6 °C 1009.11 hPa WNW 6 km/h 6 km/h 89% 0 mm 0 W/m2
23:44 8 °C 6 °C 1009.04 hPa W 6 km/h 3 km/h 89% 0 mm 0 W/m2
23:49 8 °C 6 °C 1009.01 hPa W 6 km/h 5 km/h 89% 0 mm 0 W/m2
23:54 8 °C 6 °C 1009.04 hPa WNW 7 km/h 4 km/h 89% 0 mm 0 W/m2
23:59 8 °C 6 °C 1008.97 hPa W 5 km/h 2 km/h 89% 0 mm 0 W/m2
Compliments of Weather Underground - 2 mb